createdAt,value
2022-08-05T00:00:16.841Z,45.42
2022-08-05T00:02:51.767Z,45.55
2022-08-05T00:06:03.069Z,44.99
2022-08-05T00:08:32.588Z,45.23
2022-08-05T00:11:01.341Z,44.93
2022-08-05T00:13:38.841Z,44.94
2022-08-05T00:16:12.844Z,44.21
2022-08-05T00:18:42.062Z,44.60
2022-08-05T00:21:10.342Z,44.51
2022-08-05T00:23:45.797Z,44.62
2022-08-05T00:26:22.148Z,44.26
2022-08-05T00:28:49.546Z,44.53
2022-08-05T00:31:53.400Z,44.20
2022-08-05T00:34:53.953Z,44.47
2022-08-05T00:37:11.129Z,44.20
2022-08-05T00:39:44.310Z,44.69
2022-08-05T00:42:38.370Z,45.31
2022-08-05T00:45:08.822Z,44.94
2022-08-05T00:47:56.985Z,45.12
2022-08-05T00:50:25.391Z,45.70
2022-08-05T00:52:53.386Z,45.94
2022-08-05T00:55:22.544Z,46.27
2022-08-05T00:57:55.332Z,47.30
2022-08-05T01:00:27.409Z,46.62
2022-08-05T01:02:54.543Z,47.10
2022-08-05T01:05:22.537Z,46.55
2022-08-05T01:08:39.202Z,47.30
2022-08-05T01:10:52.787Z,46.82
2022-08-05T01:13:58.788Z,47.34
2022-08-05T01:16:37.899Z,47.79
2022-08-05T01:19:20.461Z,47.39
2022-08-05T01:22:15.649Z,48.11
2022-08-05T01:25:04.741Z,48.28
2022-08-05T01:27:50.644Z,48.63
2022-08-05T01:30:34.701Z,48.85
2022-08-05T01:33:08.274Z,49.04
2022-08-05T01:35:51.216Z,49.46
2022-08-05T01:38:27.190Z,49.18
2022-08-05T01:41:01.502Z,49.80
2022-08-05T01:43:31.022Z,49.68
2022-08-05T01:46:07.423Z,50.47
2022-08-05T01:48:45.863Z,50.28
2022-08-05T01:51:19.127Z,50.74
2022-08-05T01:53:58.004Z,50.72
2022-08-05T01:58:09.772Z,50.68
2022-08-05T01:59:50.805Z,50.88
2022-08-05T02:02:53.612Z,50.90
2022-08-05T02:05:44.471Z,51.23
2022-08-05T02:08:31.304Z,51.13
2022-08-05T02:11:11.961Z,51.08
2022-08-05T02:13:53.288Z,51.00
2022-08-05T02:17:00.260Z,51.19
2022-08-05T02:19:55.201Z,52.07
2022-08-05T02:22:51.163Z,50.74
2022-08-05T02:25:33.281Z,51.12
2022-08-05T02:28:08.598Z,50.90
2022-08-05T02:30:54.310Z,50.81
2022-08-05T02:33:24.361Z,50.51
2022-08-05T02:36:05.100Z,50.19
2022-08-05T02:38:35.531Z,50.41
2022-08-05T02:41:17.797Z,50.04
2022-08-05T02:44:11.300Z,50.05
2022-08-05T02:46:44.180Z,50.05
2022-08-05T02:49:27.722Z,50.02
2022-08-05T02:52:08.980Z,50.26
2022-08-05T02:54:42.153Z,50.20
2022-08-05T02:58:10.618Z,50.42
2022-08-05T03:00:03.152Z,50.67
2022-08-05T03:02:34.836Z,50.69
2022-08-05T03:05:04.549Z,50.97
2022-08-05T03:08:00.612Z,51.14
2022-08-05T03:10:21.835Z,51.21
2022-08-05T03:12:54.191Z,51.25
2022-08-05T03:15:23.515Z,51.49
2022-08-05T03:17:54.097Z,51.36
2022-08-05T03:20:22.661Z,51.25
2022-08-05T03:22:51.304Z,50.90
2022-08-05T03:25:32.906Z,51.03
2022-08-05T03:28:08.902Z,50.88
2022-08-05T03:30:38.287Z,51.26
2022-08-05T03:33:08.421Z,51.49
2022-08-05T03:35:40.805Z,51.48
2022-08-05T03:38:14.399Z,51.63
2022-08-05T03:40:45.266Z,51.85
2022-08-05T03:44:08.335Z,51.91
2022-08-05T03:46:05.651Z,52.01
2022-08-05T03:48:36.804Z,51.96
2022-08-05T03:52:38.609Z,51.65
2022-08-05T03:55:50.264Z,51.70
2022-08-05T03:57:15.970Z,51.81
2022-08-05T04:00:15.956Z,51.96
2022-08-05T04:02:57.606Z,52.18
2022-08-05T04:05:35.318Z,51.99
2022-08-05T04:08:05.705Z,51.84
2022-08-05T04:10:45.410Z,51.67
2022-08-05T04:13:12.988Z,51.91
2022-08-05T04:16:02.956Z,51.53
2022-08-05T04:18:27.484Z,51.17
2022-08-05T04:21:04.732Z,51.02
2022-08-05T04:24:05.597Z,50.73
2022-08-05T04:26:20.291Z,50.55
2022-08-05T04:28:52.110Z,50.64
2022-08-05T04:31:20.209Z,50.11
2022-08-05T04:34:17.482Z,49.86
2022-08-05T04:36:46.241Z,50.16
2022-08-05T04:39:17.677Z,50.12
2022-08-05T04:41:45.631Z,49.93
2022-08-05T04:44:13.132Z,50.51
2022-08-05T04:46:40.324Z,50.30
2022-08-05T04:49:12.197Z,50.38
2022-08-05T04:51:43.263Z,50.58
2022-08-05T04:54:12.121Z,50.41
2022-08-05T04:56:40.013Z,50.60
2022-08-05T04:59:21.465Z,50.71
2022-08-05T05:02:06.744Z,50.58
2022-08-05T05:04:38.158Z,50.58
2022-08-05T05:07:09.535Z,50.66
2022-08-05T05:09:37.425Z,50.80
2022-08-05T05:12:06.141Z,51.09
2022-08-05T05:14:33.250Z,51.24
2022-08-05T05:17:03.732Z,51.55
2022-08-05T05:19:39.627Z,51.17
2022-08-05T05:22:24.031Z,51.70
2022-08-05T05:24:58.659Z,52.03
2022-08-05T05:27:41.791Z,52.46
2022-08-05T05:30:30.927Z,52.42
2022-08-05T05:33:09.041Z,52.51
2022-08-05T05:35:43.269Z,52.71
2022-08-05T05:38:13.121Z,53.13
2022-08-05T05:40:49.496Z,53.53
2022-08-05T05:43:22.315Z,53.74
2022-08-05T05:46:06.290Z,53.71
2022-08-05T05:48:44.466Z,54.00
2022-08-05T05:51:15.742Z,54.27
2022-08-05T05:53:45.902Z,54.45
2022-08-05T05:56:31.365Z,54.84
2022-08-05T05:59:02.959Z,55.00
2022-08-05T06:01:37.923Z,55.26
2022-08-05T06:04:11.930Z,54.57
2022-08-05T06:06:41.618Z,55.06
2022-08-05T06:09:09.386Z,55.07
2022-08-05T06:11:58.982Z,55.26
2022-08-05T06:14:27.881Z,54.81
2022-08-05T06:16:55.716Z,55.00
2022-08-05T06:19:34.255Z,54.51
2022-08-05T06:22:04.011Z,54.49
2022-08-05T06:24:32.165Z,54.52
2022-08-05T06:26:59.193Z,54.09
2022-08-05T06:29:49.009Z,54.36
2022-08-05T06:32:21.339Z,54.98
2022-08-05T06:34:57.901Z,54.09
2022-08-05T06:37:56.321Z,53.97
2022-08-05T06:40:18.539Z,53.66
2022-08-05T06:42:51.887Z,53.11
2022-08-05T06:45:43.977Z,52.24
2022-08-05T06:48:37.078Z,52.04
2022-08-05T06:50:54.319Z,52.50
2022-08-05T06:53:22.696Z,52.05
2022-08-05T06:55:56.004Z,52.18
2022-08-05T06:58:35.419Z,52.45
2022-08-05T07:01:06.555Z,52.75
2022-08-05T07:03:34.573Z,52.92
2022-08-05T07:06:05.773Z,52.99
2022-08-05T07:08:51.903Z,53.29
2022-08-05T07:11:22.152Z,53.26
2022-08-05T07:14:15.524Z,53.03
2022-08-05T07:18:00.458Z,53.24
2022-08-05T07:22:27.633Z,53.12
2022-08-05T07:24:58.436Z,54.39
2022-08-05T07:27:27.591Z,53.36
2022-08-05T07:30:27.725Z,53.32
2022-08-05T07:32:57.705Z,52.63
2022-08-05T07:35:56.003Z,51.96
2022-08-05T07:38:12.190Z,51.84
2022-08-05T07:40:39.528Z,51.89
2022-08-05T07:43:20.363Z,51.54
2022-08-05T07:45:57.739Z,51.61
2022-08-05T07:49:00.527Z,51.41
2022-08-05T07:51:23.838Z,50.43
2022-08-05T07:53:59.899Z,50.47
2022-08-05T07:57:00.836Z,49.25
2022-08-05T07:59:15.895Z,49.30
2022-08-05T08:01:52.166Z,49.05
2022-08-05T08:04:37.258Z,49.66
2022-08-05T08:07:07.203Z,49.59
2022-08-05T08:09:34.826Z,49.48
2022-08-05T08:12:11.218Z,49.57
2022-08-05T08:14:46.695Z,50.06
2022-08-05T08:17:16.071Z,48.87
2022-08-05T08:20:21.020Z,48.94
2022-08-05T08:22:32.384Z,48.97
2022-08-05T08:25:02.740Z,48.28
2022-08-05T08:27:44.692Z,49.00
2022-08-05T08:30:29.414Z,49.25
2022-08-05T08:33:04.567Z,50.28
2022-08-05T08:35:41.499Z,49.50
2022-08-05T08:38:35.935Z,48.95
2022-08-05T08:41:09.858Z,49.31
2022-08-05T08:45:22.446Z,49.56
2022-08-05T08:46:28.797Z,48.94
2022-08-05T08:49:08.063Z,49.38
2022-08-05T08:52:03.171Z,48.77
2022-08-05T08:54:34.105Z,49.41
2022-08-05T08:57:05.785Z,48.94
2022-08-05T08:59:38.801Z,48.98
2022-08-05T09:02:09.363Z,47.84
2022-08-05T09:04:57.948Z,47.19
2022-08-05T09:07:28.417Z,46.89
2022-08-05T09:09:56.623Z,46.44
2022-08-05T09:12:27.217Z,46.46
2022-08-05T09:14:59.307Z,45.39
2022-08-05T09:17:42.411Z,45.27
2022-08-05T09:20:11.963Z,44.62
2022-08-05T09:23:07.899Z,44.88
2022-08-05T09:26:01.558Z,43.50
2022-08-05T09:28:32.587Z,42.87
2022-08-05T09:31:23.417Z,42.61
2022-08-05T09:34:01.671Z,42.98
2022-08-05T09:36:55.761Z,42.83
2022-08-05T09:39:41.280Z,42.76
2022-08-05T09:42:13.630Z,42.46
2022-08-05T09:44:52.132Z,43.22
2022-08-05T09:47:21.739Z,42.38
2022-08-05T09:50:01.663Z,41.87
2022-08-05T09:52:36.566Z,42.32
2022-08-05T09:55:56.479Z,41.41
2022-08-05T09:58:00.236Z,41.40
2022-08-05T10:00:30.615Z,40.96
2022-08-05T10:02:58.713Z,41.79
2022-08-05T10:05:28.809Z,40.71
2022-08-05T10:08:10.787Z,41.02
2022-08-05T10:10:54.050Z,41.96
2022-08-05T10:13:46.283Z,42.31
2022-08-05T10:16:37.724Z,40.96
2022-08-05T10:19:10.120Z,40.88
2022-08-05T10:21:40.124Z,40.32
2022-08-05T10:24:10.811Z,40.09
2022-08-05T10:26:48.855Z,40.87
2022-08-05T10:29:24.064Z,40.42
2022-08-05T10:32:52.276Z,40.27
2022-08-05T10:34:52.976Z,40.13
2022-08-05T10:37:21.520Z,39.88
2022-08-05T10:40:03.611Z,39.15
2022-08-05T10:42:43.800Z,39.39
2022-08-05T10:45:23.848Z,40.30
2022-08-05T10:48:52.924Z,40.03
2022-08-05T10:51:29.325Z,40.76
2022-08-05T10:54:01.509Z,40.89
2022-08-05T10:56:56.112Z,40.58
2022-08-05T11:00:03.062Z,41.22
2022-08-05T11:02:34.743Z,41.16
2022-08-05T11:05:10.237Z,40.87
2022-08-05T11:08:03.289Z,39.39
2022-08-05T11:10:37.792Z,38.95
2022-08-05T11:13:55.163Z,39.04
2022-08-05T11:16:47.750Z,38.98
2022-08-05T11:20:09.986Z,40.12
2022-08-05T11:22:44.494Z,39.52
2022-08-05T11:26:04.136Z,39.39
2022-08-05T11:28:22.386Z,39.01
2022-08-05T11:30:59.004Z,39.43
2022-08-05T11:33:34.559Z,39.48
2022-08-05T11:36:34.277Z,39.60
2022-08-05T11:39:08.890Z,39.88
2022-08-05T11:42:00.904Z,39.95
2022-08-05T11:44:53.075Z,40.04
2022-08-05T11:47:48.795Z,39.15
2022-08-05T11:50:09.302Z,38.06
2022-08-05T11:52:36.335Z,37.78
2022-08-05T11:55:07.040Z,39.17
2022-08-05T11:58:08.096Z,39.01
2022-08-05T12:00:30.239Z,38.89
2022-08-05T12:02:57.515Z,38.73
2022-08-05T12:05:36.140Z,36.44
2022-08-05T12:08:09.731Z,35.98
2022-08-05T12:10:45.721Z,36.96
2022-08-05T12:13:27.799Z,36.42
2022-08-05T12:16:19.114Z,37.53
2022-08-05T12:18:54.058Z,37.59
2022-08-05T12:21:29.818Z,36.15
2022-08-05T12:24:04.936Z,37.08
2022-08-05T12:26:44.587Z,37.28
2022-08-05T12:29:16.300Z,36.08
2022-08-05T12:31:53.511Z,37.30
2022-08-05T12:34:25.734Z,36.64
2022-08-05T12:36:54.423Z,36.45
2022-08-05T12:39:28.043Z,36.83
2022-08-05T12:42:01.422Z,36.92
2022-08-05T12:44:34.069Z,36.17
2022-08-05T12:47:02.551Z,35.32
2022-08-05T12:50:04.403Z,35.30
2022-08-05T12:52:39.579Z,36.21
2022-08-05T12:55:28.317Z,35.33
2022-08-05T12:58:49.151Z,35.21
2022-08-05T13:02:04.060Z,36.17
2022-08-05T13:03:41.822Z,36.70
2022-08-05T13:06:16.089Z,37.19
2022-08-05T13:08:52.697Z,36.23
2022-08-05T13:12:02.191Z,35.84
2022-08-05T13:14:24.770Z,35.37
2022-08-05T13:17:03.006Z,36.03
2022-08-05T13:19:52.090Z,35.39
2022-08-05T13:22:29.397Z,36.02
2022-08-05T13:25:00.774Z,35.29
2022-08-05T13:27:39.075Z,35.61
2022-08-05T13:30:33.987Z,37.09
2022-08-05T13:33:01.269Z,35.83
2022-08-05T13:35:43.204Z,34.98
2022-08-05T13:38:28.527Z,35.83
2022-08-05T13:41:00.076Z,37.10
2022-08-05T13:43:45.549Z,35.38
2022-08-05T13:46:15.214Z,35.58
2022-08-05T13:48:57.932Z,35.68
2022-08-05T13:51:36.449Z,35.89
2022-08-05T13:54:03.727Z,35.78
2022-08-05T13:56:45.371Z,35.37
2022-08-05T13:59:25.011Z,35.44
2022-08-05T14:01:59.549Z,35.92
2022-08-05T14:05:02.828Z,36.36
2022-08-05T14:08:00.497Z,35.70
2022-08-05T14:10:28.823Z,35.73
2022-08-05T14:12:57.168Z,35.85
2022-08-05T14:16:08.774Z,36.23
2022-08-05T14:18:14.923Z,35.67
2022-08-05T14:20:48.020Z,35.37
2022-08-05T14:23:24.858Z,36.41
2022-08-05T14:25:58.952Z,35.31
2022-08-05T14:28:30.586Z,34.56
2022-08-05T14:30:59.158Z,34.35
2022-08-05T14:33:26.198Z,34.87
2022-08-05T14:35:54.238Z,34.93
2022-08-05T14:38:33.299Z,34.34
2022-08-05T14:41:07.432Z,35.03
2022-08-05T14:43:53.861Z,34.60
2022-08-05T14:46:28.503Z,33.87
2022-08-05T14:48:59.555Z,34.27
2022-08-05T14:51:31.041Z,34.32
2022-08-05T14:54:26.548Z,33.95
2022-08-05T14:56:47.012Z,33.96
2022-08-05T14:59:24.119Z,34.58
2022-08-05T15:01:51.326Z,35.16
2022-08-05T15:04:22.375Z,34.13
2022-08-05T15:06:57.331Z,34.88
2022-08-05T15:09:53.912Z,33.66
2022-08-05T15:12:17.021Z,33.23
2022-08-05T15:14:49.953Z,33.35
2022-08-05T15:17:45.834Z,33.23
2022-08-05T15:20:18.453Z,33.33
2022-08-05T15:22:46.741Z,33.25
2022-08-05T15:25:41.099Z,33.45
2022-08-05T15:28:15.576Z,33.75
2022-08-05T15:30:45.789Z,33.87
2022-08-05T15:34:05.941Z,33.66
2022-08-05T15:36:03.569Z,33.60
2022-08-05T15:38:35.408Z,34.33
2022-08-05T15:41:22.192Z,33.68
2022-08-05T15:43:52.203Z,34.26
2022-08-05T15:46:24.151Z,34.10
2022-08-05T15:49:01.437Z,34.30
2022-08-05T15:52:10.363Z,34.14
2022-08-05T15:54:34.978Z,34.10
2022-08-05T15:57:07.340Z,34.49
2022-08-05T15:59:35.542Z,34.00
2022-08-05T16:02:02.629Z,33.81
2022-08-05T16:04:39.749Z,33.94
2022-08-05T16:07:07.431Z,33.18
2022-08-05T16:09:41.763Z,33.16
2022-08-05T16:12:09.479Z,33.17
2022-08-05T16:14:41.457Z,32.59
2022-08-05T16:17:09.443Z,32.16
2022-08-05T16:20:04.801Z,32.45
2022-08-05T16:22:27.791Z,32.87
2022-08-05T16:25:05.407Z,33.02
2022-08-05T16:28:00.745Z,33.85
2022-08-05T16:30:26.618Z,33.45
2022-08-05T16:32:55.935Z,33.79
2022-08-05T16:35:28.039Z,34.29
2022-08-05T16:38:15.047Z,33.36
2022-08-05T16:40:51.700Z,33.54
2022-08-05T16:43:23.806Z,33.24
2022-08-05T16:46:04.549Z,33.34
2022-08-05T16:48:50.016Z,33.07
2022-08-05T16:51:17.212Z,32.75
2022-08-05T16:54:02.527Z,32.76
2022-08-05T16:56:33.967Z,33.07
2022-08-05T16:59:07.563Z,33.09
2022-08-05T17:01:54.184Z,33.49
2022-08-05T17:04:27.354Z,33.63
2022-08-05T17:07:00.094Z,32.62
2022-08-05T17:09:28.014Z,33.42
2022-08-05T17:11:59.101Z,33.67
2022-08-05T17:14:36.647Z,33.60
2022-08-05T17:17:06.211Z,33.32
2022-08-05T17:19:33.853Z,33.42
2022-08-05T17:22:01.285Z,33.61
2022-08-05T17:24:38.700Z,34.03
2022-08-05T17:27:10.351Z,33.50
2022-08-05T17:29:41.318Z,33.01
2022-08-05T17:32:17.245Z,33.30
2022-08-05T17:34:48.160Z,33.19
2022-08-05T17:37:40.521Z,33.37
2022-08-05T17:40:10.689Z,33.37
2022-08-05T17:42:41.656Z,34.01
2022-08-05T17:45:20.352Z,33.47
2022-08-05T17:47:53.892Z,33.13
2022-08-05T17:50:28.190Z,33.49
2022-08-05T17:52:56.621Z,34.21
2022-08-05T17:55:34.425Z,33.51
2022-08-05T17:58:06.868Z,33.45
2022-08-05T18:00:35.506Z,33.71
2022-08-05T18:03:02.522Z,34.01
2022-08-05T18:05:35.235Z,34.17
2022-08-05T18:08:02.994Z,34.28
2022-08-05T18:10:32.240Z,34.12
2022-08-05T18:13:01.958Z,33.61
2022-08-05T18:15:38.536Z,33.45
2022-08-05T18:18:11.106Z,33.08
2022-08-05T18:20:38.942Z,33.32
2022-08-05T18:23:11.393Z,33.76
2022-08-05T18:25:44.747Z,33.92
2022-08-05T18:28:12.864Z,34.49
2022-08-05T18:30:52.550Z,34.44
2022-08-05T18:33:22.999Z,34.56
2022-08-05T18:36:03.968Z,34.75
2022-08-05T18:38:35.846Z,34.61
2022-08-05T18:41:58.007Z,34.62
2022-08-05T18:43:50.559Z,34.28
2022-08-05T18:46:19.765Z,34.68
2022-08-05T18:48:52.661Z,34.69
2022-08-05T18:52:03.211Z,34.20
2022-08-05T18:54:31.155Z,34.48
2022-08-05T18:57:00.829Z,34.67
2022-08-05T18:59:43.619Z,34.79
2022-08-05T19:02:28.128Z,34.88
2022-08-05T19:06:05.708Z,34.51
2022-08-05T19:07:52.760Z,35.37
2022-08-05T19:10:27.892Z,35.23
2022-08-05T19:12:56.137Z,35.25
2022-08-05T19:15:57.696Z,35.63
2022-08-05T19:18:20.584Z,35.71
2022-08-05T19:20:49.598Z,35.73
2022-08-05T19:24:05.806Z,35.54
2022-08-05T19:26:04.186Z,35.54
2022-08-05T19:28:32.821Z,35.60
2022-08-05T19:31:01.140Z,35.69
2022-08-05T19:33:34.044Z,36.00
2022-08-05T19:36:06.447Z,36.24
2022-08-05T19:38:38.184Z,36.30
2022-08-05T19:41:07.339Z,37.01
2022-08-05T19:44:04.102Z,38.13
2022-08-05T19:46:30.243Z,38.60
2022-08-05T19:49:12.474Z,39.02
2022-08-05T19:52:05.703Z,39.05
2022-08-05T19:54:37.150Z,39.66
2022-08-05T19:57:06.889Z,39.82
2022-08-05T19:59:55.028Z,40.57
2022-08-05T20:02:31.474Z,40.34
2022-08-05T20:05:04.694Z,40.49
2022-08-05T20:07:47.311Z,40.82
2022-08-05T20:10:19.160Z,40.43
2022-08-05T20:12:50.379Z,41.12
2022-08-05T20:15:52.348Z,41.08
2022-08-05T20:18:33.889Z,41.19
2022-08-05T20:21:04.469Z,40.58
2022-08-05T20:23:40.480Z,40.99
2022-08-05T20:26:17.714Z,41.17
2022-08-05T20:28:51.016Z,41.52
2022-08-05T20:31:21.682Z,41.33
2022-08-05T20:33:50.401Z,41.47
2022-08-05T20:36:18.508Z,41.21
2022-08-05T20:38:54.422Z,41.58
2022-08-05T20:41:27.518Z,41.88
2022-08-05T20:44:17.074Z,41.48
2022-08-05T20:46:47.144Z,41.32
2022-08-05T20:49:14.229Z,41.34
2022-08-05T20:51:45.305Z,41.49
2022-08-05T20:54:20.455Z,41.75
2022-08-05T20:56:48.959Z,41.21
2022-08-05T20:59:26.248Z,41.42
2022-08-05T21:01:56.546Z,41.51
2022-08-05T21:04:26.994Z,41.57
2022-08-05T21:06:54.844Z,41.70
2022-08-05T21:09:22.945Z,41.57
2022-08-05T21:12:09.861Z,41.49
2022-08-05T21:14:38.255Z,42.20
2022-08-05T21:17:05.865Z,41.55
2022-08-05T21:19:46.501Z,41.86
2022-08-05T21:22:17.614Z,41.88
2022-08-05T21:24:51.409Z,41.98
2022-08-05T21:27:20.561Z,41.91
2022-08-05T21:29:51.725Z,42.39
2022-08-05T21:32:19.892Z,42.61
2022-08-05T21:35:08.157Z,42.18
2022-08-05T21:37:41.257Z,42.18
2022-08-05T21:40:13.114Z,42.42
2022-08-05T21:42:44.755Z,42.63
2022-08-05T21:45:24.438Z,42.80
2022-08-05T21:47:57.164Z,43.16
2022-08-05T21:50:26.152Z,43.30
2022-08-05T21:52:53.465Z,43.19
2022-08-05T21:55:43.101Z,44.00
2022-08-05T21:58:10.445Z,43.93
2022-08-05T22:00:40.073Z,44.12
2022-08-05T22:03:07.594Z,44.49
2022-08-05T22:05:48.846Z,44.18
2022-08-05T22:08:21.969Z,44.43
2022-08-05T22:10:53.203Z,44.60
2022-08-05T22:14:19.715Z,44.58
2022-08-05T22:16:32.299Z,45.37
2022-08-05T22:18:54.148Z,44.72
2022-08-05T22:21:25.675Z,45.01
2022-08-05T22:24:12.955Z,45.24
2022-08-05T22:28:08.743Z,45.69
2022-08-05T22:30:23.031Z,45.39
2022-08-05T22:32:49.954Z,45.43
2022-08-05T22:35:16.928Z,45.64
2022-08-05T22:37:58.031Z,45.85
2022-08-05T22:40:26.828Z,45.99
2022-08-05T22:42:58.316Z,45.81
2022-08-05T22:45:26.746Z,45.79
2022-08-05T22:47:57.598Z,45.92
2022-08-05T22:50:26.764Z,45.92
2022-08-05T22:52:55.390Z,46.00
2022-08-05T22:55:24.242Z,45.95
2022-08-05T22:57:55.065Z,45.96
2022-08-05T23:00:23.617Z,46.20
2022-08-05T23:02:53.761Z,46.39
2022-08-05T23:05:22.605Z,47.73
2022-08-05T23:07:50.645Z,46.68
2022-08-05T23:10:23.499Z,46.33
2022-08-05T23:12:55.168Z,46.38
2022-08-05T23:15:28.932Z,45.97
2022-08-05T23:18:00.971Z,46.21
2022-08-05T23:20:31.017Z,46.66
2022-08-05T23:22:58.694Z,46.71
2022-08-05T23:25:52.620Z,46.50
2022-08-05T23:28:17.265Z,46.54
2022-08-05T23:30:53.373Z,46.85
2022-08-05T23:34:02.777Z,47.00
2022-08-05T23:36:10.666Z,46.88
2022-08-05T23:38:47.263Z,47.01
2022-08-05T23:41:17.064Z,46.91
2022-08-05T23:44:05.188Z,47.13
2022-08-05T23:46:34.239Z,47.13
2022-08-05T23:49:16.047Z,47.62
2022-08-05T23:52:05.641Z,47.36
2022-08-05T23:54:38.505Z,47.84
2022-08-05T23:57:07.621Z,47.95
